Moffit, ND (58560)

1:25 AM CDT on September 29, 2016 (GMT -0500)
Hwy 34 Hazelton | | Change Station

Elev 1982 ft 46.49 °N, 100.27 °W | Updated 6 seconds ago

Clear
Clear
47.3 °F
Feels Like 44 °F
N
6.7
Wind Variable Wind from SSE
Gusts 7.4 mph

Today
High -- | Low -- °F
--% Chance of Precip.
Yesterday
High -- | Low -- °F
Precip. -- in
Pressure 30.40 in
Visibility 10.0 miles
Clouds Clear
Windchill 44 °F
Dew Point 44 °F
Humidity 88%
Rainfall 0.00 in
Snow Depth Not available.
7:37 AM 7:23 PM
Waning Crescent, 3% visible
METAR KBIS 290552Z AUTO 07006KT 10SM CLR 06/06 A3038 RMK AO2 SLP292 T00610056 10167 20061 402110022 50003
Pressure 30.40 in
Visibility 10.0 miles
Clouds Clear
Windchill 44 °F
Dew Point 44 °F
Humidity 88%
Rainfall 0.00 in
Snow Depth Not available.
7:37 AM 7:23 PM
Waning Crescent, 3% visible
METAR KBIS 290552Z AUTO 07006KT 10SM CLR 06/06 A3038 RMK AO2 SLP292 T00610056 10167 20061 402110022 50003

10-Day Weather Forecast

Almanac

Astronomy

Sep. 29, 2016 Rise Set
Actual Time
Civil Twilight
Nautical Twilight
Astronomical Twilight
Moon
Length of Visible Light
Length of Day
Tomorrow will be .
, % of the Moon is Illuminated

Today's Extremes

State Highs State Lows

Community

WunderPhotos

Upload Photos

1,942,446 photos uploaded!

WunderBlog® & News

Nearby

Air Quality

  Air Quality AQ Index Pollutant
Not available.

Snow Depth

Station Depth Elevation

Earthquake Activity

City Distance Mag. Time & Date
Minimum magnitude displayed is 2.5.

Coastal Water Temperatures

Place Temperature

Stations

Nearby Weather Stations

Station Location Temp. Windchill Dew Point Humidity Wind Precip. Elev Updated Type
                   

Watches & Warnings

There are currently no watches in effect.